Muddy Gap, Wyoming
Current Conditions -  °F | °C
As of 10:37 AM on Monday 22 Dec 2014 (Local Time) from KRWL Reporting Station
Light Snow Light Snow  
Wind Chill: 14°   Ceiling: 4700
Heat Index: 28°   Visibility: 1.7mi
Dew Point: 22°   Wind: 23mph
Humidity: 78%   Direction: 280°W
Pressure: 29.75"   Gusts: 32mph
Location:  41.7532°N, 107.372°W
Report Text: KRWL 221737Z AUTO 28020G28KT 1 3/4SM -SN BKN047 OVC065 M02/M06 A2975 RMK AO2 PK WND 28030/1721 SNB22 P0000 T10221056
Loading
Personal Weather Stations






























Interactive Weather Map New forecast layout! Learn more

10-Day Weather Forecast

Advertisements
Track Severe Weather on mobile